Time;durP1;ratioP1;P1;durP2;ratioP2;P2;SDS_P1;SDS_P2;PMS_P1;PMS_P2;Temp;Humidity;BMP_temperature;BMP_pressure;BME280_temperature;BME280_humidity;BME280_pressure;Samples;Min_cycle;Max_cycle;Signal;HPM_P1;HPM_P2
2023/04/28 00:00:50;;;;;;;13.43;8.40;;;6.20;1.00;;;;;;4930550;28;20244;-80
2023/04/28 00:03:19;;;;;;;14.50;9.20;;;6.10;1.00;;;;;;4932028;28;20478;-80
2023/04/28 00:05:46;;;;;;;14.77;9.50;;;6.00;1.00;;;;;;4929177;28;20532;-80
2023/04/28 00:08:13;;;;;;;15.32;9.27;;;5.90;1.00;;;;;;4932049;28;20470;-80
2023/04/28 00:10:40;;;;;;;15.13;7.80;;;5.90;1.00;;;;;;4934292;28;20677;-80
2023/04/28 00:13:07;;;;;;;14.95;8.75;;;5.90;1.00;;;;;;4937922;28;20319;-80
2023/04/28 00:15:37;;;;;;;11.75;8.80;;;5.70;1.00;;;;;;4934649;28;20255;-80
2023/04/28 00:18:05;;;;;;;16.52;9.27;;;5.70;1.00;;;;;;4936830;28;20251;-80
2023/04/28 00:20:33;;;;;;;13.40;8.68;;;5.60;1.00;;;;;;4933954;28;21127;-80
2023/04/28 00:23:00;;;;;;;24.37;9.47;;;5.50;1.00;;;;;;4936792;28;20224;-79
2023/04/28 00:25:27;;;;;;;13.25;8.65;;;5.50;1.00;;;;;;4928425;28;21327;-79
2023/04/28 00:27:54;;;;;;;12.45;8.45;;;5.50;1.00;;;;;;4935786;28;21211;-79
2023/04/28 00:30:23;;;;;;;16.48;9.50;;;5.50;1.00;;;;;;4933991;28;20247;-79
2023/04/28 00:32:51;;;;;;;12.30;8.10;;;5.40;1.00;;;;;;4935048;28;20247;-78
2023/04/28 00:35:19;;;;;;;13.00;8.63;;;5.50;1.00;;;;;;4934377;28;20762;-80
2023/04/28 00:37:47;;;;;;;15.90;8.77;;;5.50;1.00;;;;;;4936314;28;21712;-79
2023/04/28 00:40:14;;;;;;;14.27;8.63;;;5.50;1.00;;;;;;4937463;28;20309;-79
2023/04/28 00:42:41;;;;;;;12.30;8.10;;;5.50;1.00;;;;;;4939815;28;20287;-80
2023/04/28 00:45:09;;;;;;;12.70;8.07;;;5.50;1.00;;;;;;4937885;28;20255;-79
2023/04/28 00:47:37;;;;;;;17.00;8.77;;;5.50;1.00;;;;;;4938045;28;20244;-78
2023/04/28 00:50:05;;;;;;;13.35;8.52;;;5.40;1.00;;;;;;4940827;28;20246;-79
2023/04/28 00:52:32;;;;;;;12.13;8.27;;;5.40;1.00;;;;;;4938986;28;20239;-79
2023/04/28 00:55:01;;;;;;;15.40;8.18;;;5.40;1.00;;;;;;4936586;28;20677;-81
2023/04/28 00:57:28;;;;;;;13.10;8.75;;;5.40;1.00;;;;;;4936647;28;20298;-79
2023/04/28 00:59:55;;;;;;;11.85;8.30;;;5.40;1.00;;;;;;4938227;28;20246;-79
2023/04/28 01:02:23;;;;;;;12.35;8.70;;;5.40;1.00;;;;;;4937996;28;20239;-79
2023/04/28 01:04:51;;;;;;;15.25;8.70;;;5.40;1.00;;;;;;4932138;28;20243;-80
2023/04/28 01:07:18;;;;;;;15.50;8.73;;;5.40;1.00;;;;;;4939418;28;20241;-79
2023/04/28 01:09:46;;;;;;;15.90;9.32;;;5.40;1.00;;;;;;4937912;28;20236;-79
2023/04/28 01:12:17;;;;;;;10.80;8.10;;;5.40;1.00;;;;;;4936555;28;20243;-79
2023/04/28 01:14:47;;;;;;;16.38;10.10;;;5.50;1.00;;;;;;4935917;28;21094;-79
2023/04/28 01:17:14;;;;;;;10.75;7.47;;;5.40;1.00;;;;;;4935561;28;21155;-78
2023/04/28 01:19:41;;;;;;;13.80;8.82;;;5.40;1.00;;;;;;4936636;28;20246;-80
2023/04/28 01:22:09;;;;;;;13.50;8.00;;;5.40;1.00;;;;;;4934845;28;20287;-80
2023/04/28 01:24:37;;;;;;;13.90;8.93;;;5.40;1.00;;;;;;4933391;28;20496;-79
2023/04/28 01:27:04;;;;;;;11.88;7.22;;;5.40;1.00;;;;;;4938283;28;21056;-80
2023/04/28 01:29:31;;;;;;;14.55;7.35;;;5.40;1.00;;;;;;4939117;28;20249;-80
2023/04/28 01:31:59;;;;;;;11.38;6.78;;;5.40;1.00;;;;;;4937573;28;20328;-80
2023/04/28 01:34:26;;;;;;;17.17;7.63;;;5.40;1.00;;;;;;4935608;28;20251;-80
2023/04/28 01:36:53;;;;;;;13.07;7.20;;;5.40;1.00;;;;;;4937361;28;20265;-80
2023/04/28 01:39:20;;;;;;;11.65;7.40;;;5.40;1.00;;;;;;4941041;28;20233;-81
2023/04/28 01:41:49;;;;;;;12.05;7.00;;;5.40;1.00;;;;;;4939420;28;20242;-79
2023/04/28 01:44:17;;;;;;;13.30;8.10;;;5.40;1.00;;;;;;4939552;28;20710;-80
2023/04/28 01:46:44;;;;;;;10.10;6.55;;;5.30;1.00;;;;;;4940168;28;20248;-79
2023/04/28 01:49:11;;;;;;;13.25;7.53;;;5.30;1.00;;;;;;4940241;28;20240;-80
2023/04/28 01:51:41;;;;;;;10.48;6.78;;;5.20;1.00;;;;;;4941106;28;20333;-80
2023/04/28 01:54:08;;;;;;;12.48;7.10;;;5.20;1.00;;;;;;4937875;28;20306;-81
2023/04/28 01:56:35;;;;;;;16.63;13.57;;;5.20;1.00;;;;;;4942133;28;20612;-80
2023/04/28 01:59:04;;;;;;;9.82;5.72;;;5.10;1.00;;;;;;4941707;28;20768;-79
2023/04/28 02:01:31;;;;;;;11.25;6.22;;;5.10;1.00;;;;;;4941054;28;20238;-80
2023/04/28 02:03:58;;;;;;;10.80;6.10;;;5.10;1.00;;;;;;4938864;28;20230;-79
2023/04/28 02:06:26;;;;;;;10.95;6.75;;;5.10;1.00;;;;;;4940648;28;20247;-79
2023/04/28 02:08:53;;;;;;;10.10;6.07;;;5.10;1.00;;;;;;4942420;28;20238;-79
2023/04/28 02:11:20;;;;;;;10.47;5.87;;;5.00;1.00;;;;;;4937601;28;20258;-80
2023/04/28 02:13:47;;;;;;;12.55;6.10;;;5.00;1.00;;;;;;4940896;28;20480;-80
2023/04/28 02:16:15;;;;;;;13.35;6.68;;;5.00;1.00;;;;;;4937578;28;20257;-80
2023/04/28 02:18:43;;;;;;;10.98;6.70;;;5.00;1.00;;;;;;4938409;28;20246;-79
2023/04/28 02:21:11;;;;;;;10.48;6.35;;;5.00;1.00;;;;;;4938992;28;20263;-80
2023/04/28 02:23:38;;;;;;;10.27;6.20;;;5.00;1.00;;;;;;4939490;28;20288;-79
2023/04/28 02:26:05;;;;;;;15.13;7.00;;;5.00;1.00;;;;;;4937470;28;20315;-80
2023/04/28 02:28:32;;;;;;;9.15;5.32;;;5.10;1.00;;;;;;4938270;28;20289;-79
2023/04/28 02:31:06;;;;;;;10.85;5.68;;;5.00;1.00;;;;;;4938441;28;20253;-80
2023/04/28 02:33:35;;;;;;;11.40;6.78;;;5.00;1.00;;;;;;4938484;28;20246;-79
2023/04/28 02:36:03;;;;;;;13.02;5.60;;;5.00;1.00;;;;;;4939631;28;20261;-79
2023/04/28 02:38:31;;;;;;;11.43;6.28;;;5.00;1.00;;;;;;4939474;28;20247;-79
2023/04/28 02:40:59;;;;;;;13.60;6.60;;;5.00;1.00;;;;;;4935459;28;20373;-79
2023/04/28 02:43:26;;;;;;;10.80;5.63;;;5.10;1.00;;;;;;4935551;28;20333;-79
2023/04/28 02:45:53;;;;;;;12.70;6.85;;;5.10;1.00;;;;;;4937724;28;20242;-79
2023/04/28 02:48:20;;;;;;;10.93;6.05;;;5.10;1.00;;;;;;4936096;28;20231;-79
2023/04/28 02:50:51;;;;;;;10.80;5.45;;;5.10;1.00;;;;;;4934834;28;20221;-79
2023/04/28 02:53:20;;;;;;;10.48;5.90;;;5.00;1.00;;;;;;4934337;28;20242;-79
2023/04/28 02:55:47;;;;;;;11.25;6.10;;;5.00;1.00;;;;;;4933777;28;20238;-79
2023/04/28 02:58:16;;;;;;;10.15;5.75;;;5.00;1.00;;;;;;4935303;28;20245;-78
2023/04/28 03:00:43;;;;;;;10.40;5.65;;;5.00;1.00;;;;;;4933241;28;20238;-78
2023/04/28 03:03:11;;;;;;;10.77;5.50;;;5.00;1.00;;;;;;4934948;28;20332;-79
2023/04/28 03:05:38;;;;;;;11.00;6.70;;;5.00;1.00;;;;;;4935634;28;20267;-80
2023/04/28 03:08:10;;;;;;;10.48;5.45;;;5.00;1.00;;;;;;4939936;28;20703;-81
2023/04/28 03:10:37;;;;;;;12.00;6.47;;;5.00;1.00;;;;;;4935755;28;20298;-80
2023/04/28 03:13:04;;;;;;;9.32;5.30;;;5.00;1.00;;;;;;4936498;28;20246;-80
2023/04/28 03:15:31;;;;;;;9.77;4.68;;;5.10;1.00;;;;;;4936587;28;20248;-80
2023/04/28 03:17:58;;;;;;;11.50;6.38;;;5.00;1.00;;;;;;4935246;28;20577;-80
2023/04/28 03:20:26;;;;;;;10.30;5.78;;;5.00;1.00;;;;;;4935736;28;20242;-80
2023/04/28 03:22:53;;;;;;;12.05;5.57;;;5.10;1.00;;;;;;4938397;28;20303;-80
2023/04/28 03:25:22;;;;;;;11.07;5.97;;;5.10;1.00;;;;;;4936721;28;20250;-79
2023/04/28 03:27:49;;;;;;;10.98;5.25;;;5.00;1.00;;;;;;4937114;28;20245;-80
2023/04/28 03:30:16;;;;;;;16.92;7.75;;;5.10;1.00;;;;;;4933722;28;20324;-79
2023/04/28 03:32:43;;;;;;;15.10;6.63;;;5.10;1.00;;;;;;4923681;28;20273;-79
2023/04/28 03:35:10;;;;;;;15.82;6.70;;;5.10;1.00;;;;;;4937456;28;20237;-79
2023/04/28 03:37:37;;;;;;;11.90;6.22;;;5.10;1.00;;;;;;4936768;28;20328;-80
2023/04/28 03:40:12;;;;;;;15.40;6.30;;;5.10;1.00;;;;;;4935320;28;20234;-79
2023/04/28 03:42:40;;;;;;;11.30;5.85;;;5.20;1.00;;;;;;4932419;28;20320;-81
2023/04/28 03:45:08;;;;;;;18.50;7.80;;;5.10;1.00;;;;;;4936272;28;20246;-79
2023/04/28 03:47:35;;;;;;;13.40;7.20;;;5.20;1.00;;;;;;4935923;28;20242;-79
2023/04/28 03:50:02;;;;;;;11.80;5.75;;;5.10;1.00;;;;;;4932405;28;20980;-79
2023/04/28 03:52:29;;;;;;;12.85;6.05;;;5.20;1.00;;;;;;4936436;28;20239;-80
2023/04/28 03:54:59;;;;;;;10.13;5.50;;;5.20;1.00;;;;;;4936728;28;20253;-80
2023/04/28 03:57:26;;;;;;;12.18;7.03;;;5.20;1.00;;;;;;4935012;28;20245;-80
2023/04/28 03:59:55;;;;;;;13.95;7.65;;;5.30;1.00;;;;;;4937354;28;20234;-81
2023/04/28 04:02:22;;;;;;;11.57;6.07;;;5.30;1.00;;;;;;4929211;28;20266;-79
2023/04/28 04:04:49;;;;;;;12.63;5.95;;;5.30;1.00;;;;;;4936538;28;20242;-80
2023/04/28 04:07:16;;;;;;;8.40;4.75;;;5.40;1.00;;;;;;4931662;28;20246;-80
2023/04/28 04:09:47;;;;;;;11.40;5.50;;;5.50;1.00;;;;;;4932233;28;20304;-79
2023/04/28 04:12:14;;;;;;;11.15;5.50;;;5.50;1.00;;;;;;4933728;28;20261;-80
2023/04/28 04:14:41;;;;;;;11.07;5.88;;;5.50;1.00;;;;;;4935886;28;20949;-80
2023/04/28 04:17:09;;;;;;;10.50;4.72;;;5.50;1.00;;;;;;4938553;28;20255;-80
2023/04/28 04:19:37;;;;;;;10.93;6.05;;;5.60;1.00;;;;;;4938715;28;20234;-80
2023/04/28 04:22:04;;;;;;;11.37;6.30;;;5.60;1.00;;;;;;4938710;28;20295;-80
2023/04/28 04:24:31;;;;;;;13.90;5.68;;;5.60;1.00;;;;;;4937239;28;20587;-80
2023/04/28 04:26:57;;;;;;;12.23;6.97;;;5.70;1.00;;;;;;4924488;28;21115;-80
2023/04/28 04:29:24;;;;;;;14.73;6.40;;;5.70;1.00;;;;;;4938722;28;20337;-81
2023/04/28 04:31:51;;;;;;;14.82;7.00;;;5.80;1.00;;;;;;4938959;28;20256;-82
2023/04/28 04:34:20;;;;;;;11.70;5.70;;;5.80;1.00;;;;;;4937670;28;20788;-80
2023/04/28 04:36:48;;;;;;;10.65;5.90;;;5.70;1.00;;;;;;4939162;28;20263;-81
2023/04/28 04:39:15;;;;;;;10.45;5.53;;;5.70;1.00;;;;;;4933909;28;20296;-80
2023/04/28 04:41:42;;;;;;;11.93;5.90;;;5.80;1.00;;;;;;4939928;28;20250;-79
2023/04/28 04:44:09;;;;;;;11.10;5.28;;;5.80;1.00;;;;;;4940365;28;20244;-80
2023/04/28 04:46:37;;;;;;;13.27;6.25;;;5.90;1.00;;;;;;4935826;28;20794;-79
2023/04/28 04:49:07;;;;;;;10.30;5.50;;;6.00;1.00;;;;;;4935931;28;20232;-80
2023/04/28 04:51:35;;;;;;;12.43;5.90;;;6.00;1.00;;;;;;4939145;28;20476;-79
2023/04/28 04:54:04;;;;;;;10.75;5.65;;;6.00;1.00;;;;;;4939411;28;20517;-79
2023/04/28 04:56:32;;;;;;;12.57;6.53;;;6.10;1.00;;;;;;4940277;28;20248;-81
2023/04/28 04:59:03;;;;;;;11.73;5.40;;;6.20;1.00;;;;;;4933314;28;20276;-80
2023/04/28 05:01:30;;;;;;;11.77;5.90;;;6.20;1.00;;;;;;4944280;28;20547;-82
2023/04/28 05:03:57;;;;;;;10.70;5.23;;;6.30;1.00;;;;;;4924309;29;20549;-81
2023/04/28 05:06:48;;;;;;;10.80;6.77;;;6.30;1.00;;;;;;4920701;29;20490;-83
2023/04/28 05:09:22;;;;;;;11.10;5.50;;;6.40;1.00;;;;;;4937332;28;20494;-83
2023/04/28 05:11:49;;;;;;;11.67;5.97;;;6.40;1.00;;;;;;4930028;29;20470;-83
2023/04/28 05:14:17;;;;;;;10.75;5.50;;;6.50;1.00;;;;;;4924279;29;20461;-83
2023/04/28 05:16:44;;;;;;;9.10;5.53;;;6.50;1.00;;;;;;4922884;29;20233;-82
2023/04/28 05:19:11;;;;;;;10.87;5.80;;;6.50;1.00;;;;;;4918043;29;21555;-82
2023/04/28 05:21:38;;;;;;;12.75;5.97;;;6.60;1.00;;;;;;4918794;29;20515;-82
2023/04/28 05:24:06;;;;;;;12.52;6.30;;;6.60;1.00;;;;;;4919998;29;21127;-82
2023/04/28 05:26:35;;;;;;;12.33;5.53;;;6.60;1.00;;;;;;4914725;29;20269;-78
2023/04/28 05:29:02;;;;;;;11.23;5.87;;;6.70;1.00;;;;;;4915967;29;20565;-80
2023/04/28 05:31:31;;;;;;;12.88;6.53;;;6.80;1.00;;;;;;4913112;29;20463;-79
2023/04/28 05:33:57;;;;;;;10.07;5.57;;;6.90;1.00;;;;;;4919683;29;20869;-82
2023/04/28 05:36:25;;;;;;;11.23;6.37;;;7.10;1.00;;;;;;4922386;29;20469;-82
2023/04/28 05:38:52;;;;;;;11.67;6.27;;;7.30;1.00;;;;;;4921946;29;20558;-83
2023/04/28 05:41:19;;;;;;;9.83;6.07;;;7.50;1.00;;;;;;4922465;29;20683;-82
2023/04/28 05:43:49;;;;;;;10.07;6.23;;;7.60;1.00;;;;;;4923169;29;20463;-83
2023/04/28 05:46:17;;;;;;;11.93;6.00;;;7.80;1.00;;;;;;4915196;28;20528;-82
2023/04/28 05:48:44;;;;;;;10.90;5.63;;;7.90;1.00;;;;;;4923566;29;20482;-82
2023/04/28 05:51:11;;;;;;;12.10;6.80;;;8.10;1.00;;;;;;4917548;29;20462;-82
2023/04/28 05:53:39;;;;;;;12.77;6.13;;;8.20;1.00;;;;;;4923658;29;20489;-81
2023/04/28 05:56:07;;;;;;;10.40;6.80;;;8.30;1.00;;;;;;4917490;29;20545;-82
2023/04/28 05:58:38;;;;;;;14.00;7.17;;;8.50;1.00;;;;;;4920333;29;20514;-81
2023/04/28 06:01:23;;;;;;;11.00;7.07;;;8.60;1.00;;;;;;4919772;29;20439;-83
2023/04/28 06:03:57;;;;;;;10.53;6.33;;;8.60;1.00;;;;;;4917015;29;20972;-82
2023/04/28 06:06:24;;;;;;;13.50;7.10;;;8.80;1.00;;;;;;4917405;29;20478;-83
2023/04/28 06:08:55;;;;;;;10.57;6.47;;;8.80;1.00;;;;;;4914359;29;20498;-79
2023/04/28 06:11:22;;;;;;;10.47;7.10;;;8.70;1.00;;;;;;4915621;29;20468;-82
2023/04/28 06:13:51;;;;;;;11.63;8.87;;;8.70;1.00;;;;;;4915523;29;20541;-82
2023/04/28 06:16:20;;;;;;;12.00;6.70;;;8.70;1.00;;;;;;4918601;29;20530;-81
2023/04/28 06:18:47;;;;;;;14.40;7.30;;;8.80;1.00;;;;;;4914770;29;20550;-83
2023/04/28 06:21:14;;;;;;;12.47;6.50;;;8.90;1.00;;;;;;4919524;29;20482;-82
2023/04/28 06:23:42;;;;;;;14.73;6.20;;;9.20;1.00;;;;;;4917374;29;20458;-82
2023/04/28 06:26:09;;;;;;;8.70;5.23;;;9.50;1.00;;;;;;4921300;29;20546;-81
2023/04/28 06:28:36;;;;;;;9.93;5.67;;;9.60;1.00;;;;;;4919721;29;21146;-83
2023/04/28 06:31:03;;;;;;;10.27;6.40;;;9.90;1.00;;;;;;4922367;29;20489;-82
2023/04/28 06:33:32;;;;;;;11.90;5.90;;;10.30;1.00;;;;;;4931043;29;20467;-80
2023/04/28 06:36:00;;;;;;;9.90;5.50;;;10.60;1.00;;;;;;4928890;29;20470;-81
2023/04/28 06:38:27;;;;;;;10.87;6.00;;;10.60;1.00;;;;;;4935998;29;20451;-82
2023/04/28 06:40:54;;;;;;;8.10;5.20;;;10.40;1.00;;;;;;4915756;29;20475;-83
2023/04/28 06:43:21;;;;;;;9.17;5.47;;;10.60;1.00;;;;;;4918137;29;20435;-82
2023/04/28 06:45:48;;;;;;;9.10;5.43;;;10.70;1.00;;;;;;4913487;29;20431;-83
2023/04/28 06:48:15;;;;;;;10.63;5.60;;;10.80;1.00;;;;;;4917503;29;20969;-83
2023/04/28 06:50:44;;;;;;;10.80;5.47;;;11.10;1.00;;;;;;4904397;29;20535;-83
2023/04/28 06:53:11;;;;;;;10.20;5.20;;;11.50;1.00;;;;;;4914481;29;20528;-84
2023/04/28 06:55:38;;;;;;;9.40;5.40;;;11.90;1.00;;;;;;4921667;29;20515;-85
2023/04/28 06:58:06;;;;;;;9.50;4.83;;;12.20;1.00;;;;;;4921059;29;20465;-83
2023/04/28 07:00:33;;;;;;;6.67;4.30;;;12.50;1.00;;;;;;4919040;29;20476;-85
2023/04/28 07:03:01;;;;;;;14.83;5.27;;;12.30;1.00;;;;;;4921783;29;20453;-83
2023/04/28 07:05:28;;;;;;;11.53;4.73;;;12.20;1.00;;;;;;4916994;29;21636;-83
2023/04/28 07:07:57;;;;;;;11.47;4.20;;;12.10;1.00;;;;;;4916988;29;22060;-81
2023/04/28 07:10:24;;;;;;;9.77;4.30;;;12.20;1.00;;;;;;4915738;29;20452;-82
2023/04/28 07:12:52;;;;;;;9.37;5.00;;;12.00;1.00;;;;;;4918285;29;20483;-82
2023/04/28 07:15:19;;;;;;;9.17;4.40;;;12.00;1.00;;;;;;4920043;29;20467;-81
2023/04/28 07:17:46;;;;;;;7.83;4.33;;;12.10;1.00;;;;;;4920797;29;21187;-83
2023/04/28 07:20:15;;;;;;;8.30;4.40;;;12.00;1.00;;;;;;4921006;29;20519;-84
2023/04/28 07:22:42;;;;;;;24.70;18.47;;;12.00;1.00;;;;;;4921767;29;20468;-84
2023/04/28 07:25:13;;;;;;;7.77;3.93;;;12.20;1.00;;;;;;4923357;29;20419;-86
2023/04/28 07:27:40;;;;;;;8.17;4.57;;;12.00;1.00;;;;;;4906113;29;20472;-78
2023/04/28 07:30:08;;;;;;;9.80;4.70;;;12.00;1.00;;;;;;4920568;29;21413;-79
2023/04/28 07:32:35;;;;;;;8.20;5.00;;;12.20;1.00;;;;;;4915530;29;20538;-79
2023/04/28 07:35:03;;;;;;;7.43;4.63;;;12.50;1.00;;;;;;4917174;29;20553;-80
2023/04/28 07:37:32;;;;;;;11.43;4.97;;;12.70;1.00;;;;;;4919288;29;20521;-81
2023/04/28 07:39:59;;;;;;;8.20;4.60;;;12.90;1.00;;;;;;4920478;29;20458;-81
2023/04/28 07:42:27;;;;;;;10.70;4.87;;;12.60;1.00;;;;;;4919769;29;20509;-83
2023/04/28 07:44:56;;;;;;;9.03;5.20;;;12.80;1.00;;;;;;4920439;29;20922;-81
2023/04/28 07:47:23;;;;;;;8.80;4.93;;;12.90;1.00;;;;;;4917172;29;20467;-81
2023/04/28 07:49:51;;;;;;;9.33;5.10;;;12.90;1.00;;;;;;4919974;29;20474;-80
2023/04/28 07:52:21;;;;;;;11.70;5.03;;;12.90;1.00;;;;;;4918428;29;20475;-82
2023/04/28 07:54:50;;;;;;;10.07;5.60;;;13.10;1.00;;;;;;4919078;29;20444;-80
2023/04/28 07:57:17;;;;;;;8.53;5.27;;;13.30;1.00;;;;;;4918018;29;20469;-85
2023/04/28 07:59:45;;;;;;;10.50;5.00;;;13.60;1.00;;;;;;4921556;29;20504;-82
2023/04/28 08:02:13;;;;;;;8.87;4.67;;;13.50;1.00;;;;;;4915062;29;20461;-81
2023/04/28 08:04:41;;;;;;;8.43;5.03;;;13.60;1.00;;;;;;4921102;29;21728;-82
2023/04/28 08:07:09;;;;;;;10.20;5.50;;;13.80;1.00;;;;;;4935126;28;20461;-81
2023/04/28 08:09:36;;;;;;;8.40;4.93;;;13.80;1.00;;;;;;4939699;28;20504;-83
2023/04/28 08:12:04;;;;;;;9.87;4.90;;;13.90;1.00;;;;;;4934970;28;20548;-79
2023/04/28 08:14:31;;;;;;;8.40;4.90;;;14.10;1.00;;;;;;4931202;28;20464;-79
2023/04/28 08:17:01;;;;;;;8.67;5.90;;;14.10;1.00;;;;;;4937975;28;20517;-77
2023/04/28 08:19:30;;;;;;;9.57;5.67;;;14.20;1.00;;;;;;4935157;29;20576;-77
2023/04/28 08:21:58;;;;;;;9.40;5.20;;;14.30;1.00;;;;;;4936084;28;20430;-78
2023/04/28 08:24:29;;;;;;;8.30;5.20;;;14.30;1.00;;;;;;4935870;29;20469;-78
2023/04/28 08:26:57;;;;;;;9.40;4.77;;;14.70;1.00;;;;;;4934321;28;20469;-79
2023/04/28 08:29:25;;;;;;;7.10;4.23;;;14.80;1.00;;;;;;4935941;28;20631;-78
2023/04/28 08:31:52;;;;;;;7.07;4.67;;;14.90;1.00;;;;;;4928092;28;20956;-79
2023/04/28 08:34:21;;;;;;;8.90;5.20;;;14.90;1.00;;;;;;4926633;28;20565;-78
2023/04/28 08:36:48;;;;;;;8.07;4.70;;;14.90;1.00;;;;;;4925871;28;20481;-80
2023/04/28 08:39:16;;;;;;;11.80;5.23;;;15.20;1.00;;;;;;4930213;28;20596;-79
2023/04/28 08:41:43;;;;;;;8.37;5.23;;;15.30;1.00;;;;;;4933619;28;20456;-79
2023/04/28 08:44:13;;;;;;;9.20;5.03;;;15.30;1.00;;;;;;4935705;28;21246;-80
2023/04/28 08:46:44;;;;;;;10.70;5.10;;;15.50;1.00;;;;;;4930471;28;20461;-79
2023/04/28 08:49:15;;;;;;;7.57;4.73;;;15.70;1.00;;;;;;4926319;28;20525;-79
2023/04/28 08:51:50;;;;;;;9.20;5.13;;;15.70;1.00;;;;;;4929543;28;20530;-81
2023/04/28 08:54:18;;;;;;;9.43;5.07;;;15.90;1.00;;;;;;4932639;28;21303;-79
2023/04/28 08:56:48;;;;;;;9.10;4.83;;;16.20;1.00;;;;;;4924833;28;20490;-80
2023/04/28 08:59:17;;;;;;;10.83;5.43;;;16.20;1.00;;;;;;4933681;28;20442;-80
2023/04/28 09:01:44;;;;;;;10.23;5.80;;;16.40;1.00;;;;;;4939660;28;20447;-80
2023/04/28 09:04:12;;;;;;;11.00;5.37;;;16.50;1.00;;;;;;4940478;29;20795;-81
2023/04/28 09:06:39;;;;;;;9.50;4.60;;;16.70;1.00;;;;;;4936763;28;20510;-81
2023/04/28 09:09:22;;;;;;;9.90;5.60;;;17.10;1.00;;;;;;4934141;28;20568;-80
2023/04/28 09:11:53;;;;;;;9.50;5.10;;;17.30;1.00;;;;;;4930892;28;20458;-78
2023/04/28 09:14:21;;;;;;;9.93;5.57;;;17.00;1.00;;;;;;4934365;28;20996;-79
2023/04/28 09:16:48;;;;;;;13.77;5.37;;;16.90;1.00;;;;;;4933944;28;20592;-79
2023/04/28 09:19:16;;;;;;;12.73;5.70;;;17.30;1.00;;;;;;4937332;28;20542;-84
2023/04/28 09:21:48;;;;;;;10.53;5.87;;;17.30;1.00;;;;;;4937088;28;20490;-84
2023/04/28 09:24:35;;;;;;;9.63;5.93;;;17.10;1.00;;;;;;4932106;28;21412;-81
2023/04/28 09:27:06;;;;;;;9.70;6.00;;;17.30;1.00;;;;;;4930888;28;20468;-81
2023/04/28 09:29:33;;;;;;;10.43;6.10;;;17.40;1.00;;;;;;4931012;28;21016;-82
2023/04/28 09:32:17;;;;;;;11.40;5.60;;;17.60;1.00;;;;;;4931450;28;21291;-81
2023/04/28 09:34:45;;;;;;;11.80;5.77;;;18.10;1.00;;;;;;4934913;28;20980;-80
2023/04/28 09:37:19;;;;;;;10.40;5.83;;;18.90;1.00;;;;;;4934002;28;20560;-82
2023/04/28 09:39:49;;;;;;;7.93;5.63;;;19.70;1.00;;;;;;4936377;28;20498;-81
2023/04/28 09:42:33;;;;;;;8.93;5.77;;;20.60;1.00;;;;;;4936016;28;20422;-83
2023/04/28 09:45:02;;;;;;;7.40;5.50;;;20.80;1.00;;;;;;4936574;28;20591;-82
2023/04/28 09:47:29;;;;;;;7.60;5.33;;;20.80;1.00;;;;;;4933885;28;20464;-81
2023/04/28 09:49:57;;;;;;;9.17;5.50;;;20.90;1.00;;;;;;4932819;28;20486;-83
2023/04/28 09:52:24;;;;;;;8.77;5.63;;;21.30;1.00;;;;;;4932941;28;20476;-84
2023/04/28 09:54:54;;;;;;;11.40;6.93;;;21.80;1.00;;;;;;4932954;28;20550;-81
2023/04/28 09:57:22;;;;;;;8.77;5.63;;;22.50;1.00;;;;;;4936102;28;20493;-83
2023/04/28 09:59:51;;;;;;;10.30;5.30;;;22.90;1.00;;;;;;4929476;28;20505;-84
2023/04/28 10:02:22;;;;;;;10.20;6.27;;;23.70;1.00;;;;;;4925980;28;20451;-83
2023/04/28 10:04:52;;;;;;;9.57;6.17;;;23.70;1.00;;;;;;4922359;28;21067;-82
2023/04/28 10:07:20;;;;;;;9.83;5.57;;;23.40;1.00;;;;;;4919034;28;20930;-83
2023/04/28 10:09:49;;;;;;;8.77;5.27;;;23.00;1.00;;;;;;4923628;28;20477;-82
2023/04/28 10:12:21;;;;;;;8.20;5.83;;;22.60;1.00;;;;;;4941449;28;20516;-82
2023/04/28 10:14:49;;;;;;;13.43;6.33;;;23.00;1.00;;;;;;4939819;28;20509;-82
2023/04/28 10:17:18;;;;;;;8.90;6.37;;;23.50;1.00;;;;;;4935358;28;20478;-83
2023/04/28 10:19:47;;;;;;;8.90;5.50;;;24.50;1.00;;;;;;4937143;28;20472;-80
2023/04/28 10:22:32;;;;;;;7.30;5.00;;;25.10;1.00;;;;;;4933749;28;21040;-81
2023/04/28 10:25:24;;;;;;;6.13;4.83;;;24.90;1.00;;;;;;4935247;28;20473;-81
2023/04/28 10:27:54;;;;;;;12.93;6.60;;;24.60;1.00;;;;;;4931896;28;20466;-80
2023/04/28 10:30:23;;;;;;;8.27;5.80;;;24.70;1.00;;;;;;4933994;28;20480;-83
2023/04/28 10:33:24;;;;;;;12.07;6.30;;;24.50;1.00;;;;;;4911710;28;20471;-80
2023/04/28 10:35:51;;;;;;;8.33;5.90;;;24.50;1.00;;;;;;4932878;28;20497;-81
2023/04/28 10:38:21;;;;;;;8.70;6.20;;;23.70;1.00;;;;;;4934026;28;20470;-82
2023/04/28 10:40:52;;;;;;;6.33;5.53;;;24.20;1.00;;;;;;4933524;28;21579;-82
2023/04/28 10:43:44;;;;;;;8.90;4.93;;;24.30;1.00;;;;;;4934640;28;20493;-85
2023/04/28 10:46:11;;;;;;;7.27;5.60;;;24.40;1.00;;;;;;4930718;28;20441;-78
2023/04/28 10:49:06;;;;;;;6.50;4.93;;;23.60;1.00;;;;;;4933574;28;20458;-80
2023/04/28 10:51:33;;;;;;;7.97;6.03;;;23.50;1.00;;;;;;4932482;28;20486;-80
2023/04/28 10:54:26;;;;;;;7.73;5.37;;;23.80;1.00;;;;;;4935253;28;20470;-79
2023/04/28 10:57:16;;;;;;;9.37;6.00;;;24.00;1.00;;;;;;4932984;28;20449;-82
2023/04/28 10:59:45;;;;;;;7.63;5.67;;;24.60;1.00;;;;;;4936137;28;20478;-80
2023/04/28 11:02:48;;;;;;;9.83;5.37;;;25.00;1.00;;;;;;4927332;28;20477;-79
2023/04/28 11:05:17;;;;;;;7.67;5.13;;;25.40;1.00;;;;;;4880930;29;20483;-83
2023/04/28 11:08:32;;;;;;;8.60;5.07;;;25.70;1.00;;;;;;4880797;29;20466;-80
2023/04/28 11:11:13;;;;;;;6.67;5.40;;;26.10;1.00;;;;;;4923502;28;20449;-79
2023/04/28 11:13:40;;;;;;;7.90;5.63;;;26.20;1.00;;;;;;4933357;28;20489;-80
2023/04/28 11:16:10;;;;;;;8.70;5.50;;;26.20;1.00;;;;;;4932598;28;20455;-81
2023/04/28 11:19:02;;;;;;;7.73;5.57;;;26.50;1.00;;;;;;4935779;28;20475;-83
2023/04/28 11:21:31;;;;;;;6.27;5.50;;;26.90;1.00;;;;;;4938077;28;21790;-81
2023/04/28 11:23:58;;;;;;;6.70;5.40;;;27.40;1.00;;;;;;4935669;28;20608;-81
2023/04/28 11:26:27;;;;;;;7.67;5.67;;;27.00;1.00;;;;;;4934578;28;20451;-81
2023/04/28 11:28:56;;;;;;;7.80;5.27;;;26.90;1.00;;;;;;4935749;28;20517;-83
2023/04/28 11:31:29;;;;;;;7.30;5.57;;;25.60;1.00;;;;;;4933668;28;20470;-81
2023/04/28 11:34:16;;;;;;;9.43;5.50;;;25.00;1.00;;;;;;4932155;28;20521;-81
2023/04/28 11:36:44;;;;;;;8.97;5.80;;;23.80;1.00;;;;;;4937768;28;20487;-81
2023/04/28 11:39:12;;;;;;;7.87;5.13;;;23.80;1.00;;;;;;4938515;28;20470;-82
2023/04/28 11:41:40;;;;;;;7.83;5.80;;;23.50;1.00;;;;;;4937508;28;20482;-81
2023/04/28 11:44:11;;;;;;;8.50;7.10;;;23.10;1.00;;;;;;4938679;29;20999;-82
2023/04/28 11:46:54;;;;;;;11.27;6.50;;;22.50;1.00;;;;;;4932486;28;20484;-81
2023/04/28 11:49:23;;;;;;;8.40;6.40;;;22.30;1.00;;;;;;4937642;29;20500;-82
2023/04/28 11:51:50;;;;;;;10.50;6.90;;;22.20;1.00;;;;;;4933031;28;20478;-79
2023/04/28 11:54:23;;;;;;;10.03;6.87;;;21.30;1.00;;;;;;4935037;28;20488;-81
2023/04/28 11:56:50;;;;;;;8.53;6.43;;;21.00;1.00;;;;;;4935100;28;20474;-82
2023/04/28 11:59:21;;;;;;;9.60;7.03;;;20.90;1.00;;;;;;4934579;28;20439;-82
2023/04/28 12:01:51;;;;;;;10.17;7.53;;;20.80;1.00;;;;;;4939295;28;20461;-82
2023/04/28 12:04:30;;;;;;;11.30;7.50;;;20.50;1.00;;;;;;4938668;28;20512;-82
2023/04/28 12:07:04;;;;;;;10.70;7.80;;;20.00;1.00;;;;;;4937686;28;20456;-82
2023/04/28 12:09:33;;;;;;;9.30;6.97;;;20.00;1.00;;;;;;4939262;28;20468;-82
2023/04/28 12:12:01;;;;;;;9.90;7.40;;;20.10;1.00;;;;;;4941855;28;20495;-79
2023/04/28 12:14:30;;;;;;;11.57;7.07;;;20.00;1.00;;;;;;4939616;28;20510;-82
2023/04/28 12:17:00;;;;;;;9.67;6.90;;;20.10;1.00;;;;;;4939517;28;20464;-83
2023/04/28 12:19:27;;;;;;;9.83;7.23;;;20.70;1.00;;;;;;4938413;28;20493;-81
2023/04/28 12:22:02;;;;;;;14.53;7.17;;;21.20;1.00;;;;;;4941691;28;20462;-82
2023/04/28 12:24:29;;;;;;;10.47;6.70;;;22.10;1.00;;;;;;4940322;28;20471;-84
2023/04/28 12:27:16;;;;;;;10.20;7.73;;;23.00;1.00;;;;;;4935203;28;20469;-81
2023/04/28 12:29:44;;;;;;;13.23;6.87;;;23.00;1.00;;;;;;4938033;28;21353;-83
2023/04/28 12:32:13;;;;;;;7.90;6.57;;;22.70;1.00;;;;;;4938390;28;20468;-84
2023/04/28 12:34:42;;;;;;;13.70;7.90;;;22.70;1.00;;;;;;4940093;28;20475;-81
2023/04/28 12:37:11;;;;;;;10.67;8.03;;;23.10;1.00;;;;;;4933237;28;20465;-81
2023/04/28 12:39:41;;;;;;;9.67;8.67;;;23.40;1.00;;;;;;4939758;28;20469;-83
2023/04/28 12:42:10;;;;;;;9.87;6.87;;;22.70;1.00;;;;;;4930041;28;20455;-83
2023/04/28 12:44:39;;;;;;;10.50;7.40;;;23.10;1.00;;;;;;4937281;28;20473;-78
2023/04/28 12:47:07;;;;;;;11.07;7.50;;;23.00;1.00;;;;;;4944380;28;20460;-81
2023/04/28 12:49:36;;;;;;;8.80;6.47;;;22.90;1.00;;;;;;4941322;28;20528;-81
2023/04/28 12:52:04;;;;;;;8.40;6.50;;;22.80;1.00;;;;;;4944911;28;21182;-83
2023/04/28 12:54:32;;;;;;;9.80;6.73;;;22.50;1.00;;;;;;4945527;28;20465;-82
2023/04/28 12:57:01;;;;;;;10.13;7.23;;;22.20;1.00;;;;;;4946638;28;20523;-82
2023/04/28 12:59:29;;;;;;;11.00;6.77;;;22.00;1.00;;;;;;4938925;28;20459;-81
2023/04/28 13:01:57;;;;;;;11.77;6.10;;;21.70;1.00;;;;;;4942696;28;20443;-81
2023/04/28 13:04:24;;;;;;;7.60;6.10;;;21.10;1.00;;;;;;4937826;28;20900;-80
2023/04/28 13:06:53;;;;;;;9.10;5.83;;;20.80;1.00;;;;;;4925558;28;20480;-81